createdAt,value
2018-09-03T00:00:03.465Z,102054.33
2018-09-03T00:02:40.803Z,102053.44
2018-09-03T00:05:10.121Z,102047.06
2018-09-03T00:07:39.482Z,102044.86
2018-09-03T00:10:09.424Z,102040.17
2018-09-03T00:12:38.659Z,102039.91
2018-09-03T00:15:07.985Z,102042.88
2018-09-03T00:17:38.103Z,102037.20
2018-09-03T00:20:07.470Z,102034.77
2018-09-03T00:22:36.818Z,102033.05
2018-09-03T00:25:06.885Z,102026.37
2018-09-03T00:27:36.313Z,102028.36
2018-09-03T00:30:05.870Z,102017.08
2018-09-03T00:32:41.574Z,102015.20
2018-09-03T00:35:16.297Z,102015.10
2018-09-03T00:37:51.351Z,102014.61
2018-09-03T00:40:25.853Z,102011.91
2018-09-03T00:43:00.950Z,102007.22
2018-09-03T00:45:35.703Z,102005.53
2018-09-03T00:48:05.512Z,102005.40
2018-09-03T00:50:34.809Z,102001.57
2018-09-03T00:53:04.125Z,101998.50
2018-09-03T00:55:34.420Z,101996.79
2018-09-03T00:58:08.580Z,101996.75
2018-09-03T01:00:38.069Z,101997.37
2018-09-03T01:03:07.546Z,101984.44
2018-09-03T01:05:36.798Z,101992.95
2018-09-03T01:08:06.756Z,101991.83
2018-09-03T01:10:36.111Z,101989.13
2018-09-03T01:13:06.137Z,101991.06
2018-09-03T01:15:36.663Z,101983.70
2018-09-03T01:18:05.938Z,101985.43
2018-09-03T01:20:36.637Z,101988.27
2018-09-03T01:23:06.185Z,101987.54
2018-09-03T01:25:35.547Z,101983.57
2018-09-03T01:28:04.943Z,101979.78
2018-09-03T01:30:34.797Z,101978.88
2018-09-03T01:33:04.817Z,101977.94
2018-09-03T01:35:34.307Z,101966.75
2018-09-03T01:38:03.618Z,101964.99
2018-09-03T01:40:33.021Z,101968.47
2018-09-03T01:43:03.150Z,101965.14
2018-09-03T01:45:32.456Z,101960.98
2018-09-03T01:48:02.041Z,101959.59
2018-09-03T01:50:31.446Z,101954.08
2018-09-03T01:53:00.767Z,101955.80
2018-09-03T01:55:30.149Z,101946.56
2018-09-03T01:58:00.058Z,101950.38
2018-09-03T02:00:29.761Z,101958.73
2018-09-03T02:02:59.382Z,101954.08
2018-09-03T02:05:28.810Z,101952.09
2018-09-03T02:07:58.154Z,101949.52
2018-09-03T02:10:27.739Z,101944.47
2018-09-03T02:12:57.642Z,101952.45
2018-09-03T02:15:27.607Z,101939.64
2018-09-03T02:17:57.076Z,101945.96
2018-09-03T02:20:27.017Z,101935.86
2018-09-03T02:22:56.287Z,101933.42
2018-09-03T02:25:25.756Z,101926.17
2018-09-03T02:27:55.227Z,101930.33
2018-09-03T02:30:24.657Z,101927.62
2018-09-03T02:32:53.934Z,101929.11
2018-09-03T02:35:23.373Z,101926.27
2018-09-03T02:37:52.835Z,101926.81
2018-09-03T02:40:22.268Z,101923.56
2018-09-03T02:42:51.786Z,101923.95
2018-09-03T02:45:21.321Z,101925.19
2018-09-03T02:47:50.802Z,101923.56
2018-09-03T02:50:20.535Z,101917.64
2018-09-03T02:52:50.085Z,101918.50
2018-09-03T02:55:19.800Z,101911.37
2018-09-03T02:57:49.731Z,101910.60
2018-09-03T03:00:19.576Z,101911.95
2018-09-03T03:02:49.561Z,101912.50
2018-09-03T03:05:20.958Z,101908.44
2018-09-03T03:07:50.800Z,101901.41
2018-09-03T03:10:20.330Z,101905.82
2018-09-03T03:12:50.684Z,101903.09
2018-09-03T03:15:20.196Z,101900.75
2018-09-03T03:17:49.652Z,101903.45
2018-09-03T03:20:19.105Z,101906.16
2018-09-03T03:22:48.893Z,101909.16
2018-09-03T03:25:18.623Z,101897.19
2018-09-03T03:27:48.293Z,101897.63
2018-09-03T03:30:17.851Z,101900.25
2018-09-03T03:32:47.509Z,101893.77
2018-09-03T03:35:17.622Z,101892.14
2018-09-03T03:37:48.141Z,101894.00
2018-09-03T03:40:18.871Z,101892.16
2018-09-03T03:42:48.437Z,101893.48
2018-09-03T03:45:17.935Z,101882.30
2018-09-03T03:47:47.545Z,101878.13
2018-09-03T03:50:17.170Z,101873.35
2018-09-03T03:52:47.255Z,101872.22
2018-09-03T03:55:17.194Z,101869.85
2018-09-03T03:57:46.794Z,101880.41
2018-09-03T04:00:16.606Z,101880.48
2018-09-03T04:02:47.100Z,101889.07
2018-09-03T04:05:16.687Z,101881.88
2018-09-03T04:07:46.163Z,101895.78
2018-09-03T04:10:15.752Z,101890.92
2018-09-03T04:12:50.992Z,101883.02
2018-09-03T04:15:21.020Z,101891.84
2018-09-03T04:17:50.822Z,101878.41
2018-09-03T04:20:20.290Z,101879.52
2018-09-03T04:22:49.947Z,101870.69
2018-09-03T04:25:19.690Z,101875.33
2018-09-03T04:27:49.760Z,101875.55
2018-09-03T04:30:20.075Z,101876.31
2018-09-03T04:32:49.719Z,101865.13
2018-09-03T04:35:19.298Z,101869.27
2018-09-03T04:37:49.321Z,101866.78
2018-09-03T04:40:19.302Z,101872.09
2018-09-03T04:42:50.267Z,101866.05
2018-09-03T04:45:19.715Z,101860.27
2018-09-03T04:47:49.574Z,101863.83
2018-09-03T04:50:19.938Z,101863.83
2018-09-03T04:52:49.530Z,101861.56
2018-09-03T04:55:19.367Z,101865.48
2018-09-03T04:57:48.937Z,101865.62
2018-09-03T05:00:18.389Z,101869.33
2018-09-03T05:02:47.881Z,101860.84
2018-09-03T05:05:18.351Z,101861.84
2018-09-03T05:07:47.917Z,101851.82
2018-09-03T05:10:17.435Z,101859.27
2018-09-03T05:12:47.127Z,101863.08
2018-09-03T05:15:16.590Z,101859.94
2018-09-03T05:17:46.303Z,101860.02
2018-09-03T05:20:16.485Z,101857.28
2018-09-03T05:22:45.925Z,101862.06
2018-09-03T05:25:15.710Z,101865.27
2018-09-03T05:27:45.861Z,101866.19
2018-09-03T05:30:15.490Z,101870.40
2018-09-03T05:32:44.833Z,101871.20
2018-09-03T05:35:15.183Z,101867.34
2018-09-03T05:37:46.729Z,101863.74
2018-09-03T05:40:16.435Z,101858.05
2018-09-03T05:42:46.345Z,101860.04
2018-09-03T05:45:16.283Z,101859.09
2018-09-03T05:47:46.792Z,101855.66
2018-09-03T05:50:16.671Z,101850.56
2018-09-03T05:52:46.618Z,101850.39
2018-09-03T05:55:16.440Z,101851.82
2018-09-03T05:57:46.044Z,101853.09
2018-09-03T06:00:15.565Z,101856.95
2018-09-03T06:02:45.802Z,101850.64
2018-09-03T06:05:15.321Z,101854.42
2018-09-03T06:07:44.795Z,101866.44
2018-09-03T06:10:14.380Z,101852.89
2018-09-03T06:12:43.953Z,101850.33
2018-09-03T06:15:13.415Z,101859.56
2018-09-03T06:17:42.936Z,101852.00
2018-09-03T06:20:15.083Z,101853.71
2018-09-03T06:22:44.895Z,101855.78
2018-09-03T06:25:14.389Z,101853.38
2018-09-03T06:27:43.885Z,101852.45
2018-09-03T06:30:13.337Z,101854.42
2018-09-03T06:32:44.116Z,101858.48
2018-09-03T06:35:14.244Z,101854.55
2018-09-03T06:37:43.476Z,101857.41
2018-09-03T06:40:13.684Z,101854.98
2018-09-03T06:42:43.196Z,101854.85
2018-09-03T06:45:12.561Z,101852.72
2018-09-03T06:47:41.993Z,101857.43
2018-09-03T06:50:11.356Z,101851.70
2018-09-03T06:52:40.603Z,101857.69
2018-09-03T06:55:09.878Z,101848.16
2018-09-03T06:57:39.321Z,101853.02
2018-09-03T07:00:08.955Z,101860.08
2018-09-03T07:02:38.285Z,101852.16
2018-09-03T07:05:08.841Z,101852.50
2018-09-03T07:07:38.210Z,101850.72
2018-09-03T07:10:08.282Z,101852.86
2018-09-03T07:12:38.871Z,101851.28
2018-09-03T07:15:08.477Z,101852.38
2018-09-03T07:17:38.496Z,101860.52
2018-09-03T07:20:08.248Z,101859.58
2018-09-03T07:22:37.545Z,101852.25
2018-09-03T07:25:06.929Z,101854.32
2018-09-03T07:27:36.305Z,101854.67
2018-09-03T07:30:05.750Z,101856.45
2018-09-03T07:32:35.194Z,101855.97
2018-09-03T07:35:04.680Z,101855.59
2018-09-03T07:37:33.911Z,101858.03
2018-09-03T07:40:03.475Z,101863.87
2018-09-03T07:42:32.845Z,101860.37
2018-09-03T07:45:02.333Z,101864.59
2018-09-03T07:47:31.654Z,101853.18
2018-09-03T07:50:01.065Z,101859.11
2018-09-03T07:52:30.356Z,101863.16
2018-09-03T07:57:39.545Z,101852.39
2018-09-03T08:00:08.988Z,101855.95
2018-09-03T08:02:38.386Z,101858.11
2018-09-03T08:05:08.100Z,101846.41
2018-09-03T08:07:37.672Z,101844.20
2018-09-03T08:10:08.768Z,101833.61
2018-09-03T08:12:38.382Z,101830.86
2018-09-03T08:15:08.285Z,101833.42
2018-09-03T08:17:39.161Z,101829.00
2018-09-03T08:20:08.686Z,101841.74
2018-09-03T08:22:37.791Z,101825.44
2018-09-03T08:25:08.584Z,101819.34
2018-09-03T08:27:37.881Z,101819.17
2018-09-03T08:30:11.152Z,101819.17
2018-09-03T08:32:40.388Z,101811.89
2018-09-03T08:35:09.871Z,101821.30
2018-09-03T08:37:39.298Z,101827.54
2018-09-03T08:40:08.759Z,101819.90
2018-09-03T08:42:39.405Z,101819.98
2018-09-03T08:45:09.006Z,101812.21
2018-09-03T08:47:38.416Z,101818.27
2018-09-03T08:50:07.917Z,101818.19
2018-09-03T08:52:37.377Z,101817.67
2018-09-03T08:55:06.745Z,101824.30
2018-09-03T08:57:36.100Z,101822.15
2018-09-03T09:00:05.818Z,101819.56
2018-09-03T09:02:35.140Z,101812.39
2018-09-03T09:05:04.480Z,101811.69
2018-09-03T09:07:33.846Z,101821.89
2018-09-03T09:10:03.267Z,101817.70
2018-09-03T09:12:32.624Z,101822.83
2018-09-03T09:15:02.369Z,101822.55
2018-09-03T09:17:31.804Z,101812.98
2018-09-03T09:20:01.204Z,101819.83
2018-09-03T09:22:30.550Z,101812.75
2018-09-03T09:24:59.911Z,101811.28
2018-09-03T09:27:29.244Z,101804.44
2018-09-03T09:29:58.777Z,101799.98
2018-09-03T09:32:28.232Z,101792.36
2018-09-03T09:34:57.781Z,101804.80
2018-09-03T09:37:27.394Z,101794.92
2018-09-03T09:39:57.020Z,101800.66
2018-09-03T09:42:26.967Z,101794.95
2018-09-03T09:44:57.137Z,101794.28
2018-09-03T09:47:26.556Z,101796.80
2018-09-03T09:49:55.887Z,101791.36
2018-09-03T09:52:25.739Z,101793.37
2018-09-03T09:54:55.200Z,101788.80
2018-09-03T09:57:24.859Z,101783.41
2018-09-03T09:59:54.419Z,101781.20
2018-09-03T10:02:23.966Z,101780.03
2018-09-03T10:04:53.481Z,101776.48
2018-09-03T10:07:23.538Z,101769.06
2018-09-03T10:09:53.205Z,101764.82
2018-09-03T10:12:27.920Z,101761.27
2018-09-03T10:14:57.591Z,101765.19
2018-09-03T10:17:27.354Z,101758.58
2018-09-03T10:19:57.051Z,101756.42
2018-09-03T10:22:26.288Z,101751.17
2018-09-03T10:24:55.779Z,101756.44
2018-09-03T10:27:25.219Z,101751.23
2018-09-03T10:29:54.940Z,101745.96
2018-09-03T10:32:25.858Z,101748.77
2018-09-03T10:34:55.945Z,101742.80
2018-09-03T10:37:25.406Z,101748.97
2018-09-03T10:39:54.860Z,101753.14
2018-09-03T10:42:26.603Z,101756.76
2018-09-03T10:44:56.264Z,101752.55
2018-09-03T10:47:25.918Z,101755.30
2018-09-03T10:49:55.616Z,101750.45
2018-09-03T10:52:25.242Z,101746.53
2018-09-03T10:54:55.026Z,101752.13
2018-09-03T10:57:24.473Z,101744.02
2018-09-03T10:59:54.073Z,101747.70
2018-09-03T11:02:23.632Z,101753.28
2018-09-03T11:04:53.579Z,101743.41
2018-09-03T11:07:23.109Z,101738.19
2018-09-03T11:09:52.645Z,101740.05
2018-09-03T11:12:23.947Z,101745.47
2018-09-03T11:14:53.436Z,101743.78
2018-09-03T11:17:23.008Z,101739.10
2018-09-03T11:19:58.021Z,101733.38
2018-09-03T11:22:29.485Z,101729.09
2018-09-03T11:24:59.728Z,101729.59
2018-09-03T11:27:29.350Z,101729.27
2018-09-03T11:29:58.611Z,101732.86
2018-09-03T11:32:28.320Z,101731.84
2018-09-03T11:34:57.787Z,101729.94
2018-09-03T11:37:27.211Z,101735.35
2018-09-03T11:39:56.797Z,101735.63
2018-09-03T11:42:26.113Z,101728.41
2018-09-03T11:44:55.397Z,101729.28
2018-09-03T11:47:25.043Z,101726.75
2018-09-03T11:49:54.565Z,101726.03
2018-09-03T11:52:23.923Z,101733.30
2018-09-03T11:54:54.443Z,101726.52
2018-09-03T11:57:25.168Z,101721.47
2018-09-03T11:59:54.728Z,101718.31
2018-09-03T12:02:24.451Z,101721.58
2018-09-03T12:04:53.991Z,101721.63
2018-09-03T12:07:23.620Z,101722.06
2018-09-03T12:10:56.318Z,101713.56
2018-09-03T12:13:26.392Z,101713.07
2018-09-03T12:16:12.046Z,101713.88
2018-09-03T12:19:44.492Z,101714.30
2018-09-03T12:22:14.819Z,101714.10
2018-09-03T12:24:44.256Z,101708.53
2018-09-03T12:27:13.537Z,101703.14
2018-09-03T12:29:42.817Z,101703.97
2018-09-03T12:32:12.043Z,101702.02
2018-09-03T12:34:41.269Z,101693.67
2018-09-03T12:37:10.620Z,101697.23
2018-09-03T12:39:39.865Z,101697.05
2018-09-03T12:42:09.382Z,101704.55
2018-09-03T12:44:38.952Z,101705.61
2018-09-03T12:47:08.363Z,101695.50
2018-09-03T12:49:37.592Z,101691.29
2018-09-03T12:52:07.697Z,101699.15
2018-09-03T12:54:38.058Z,101693.06
2018-09-03T12:57:07.323Z,101690.27
2018-09-03T12:59:37.191Z,101690.17
2018-09-03T13:02:06.596Z,101682.61
2018-09-03T13:04:35.912Z,101679.83
2018-09-03T13:07:05.706Z,101682.88
2018-09-03T13:09:35.592Z,101676.63
2018-09-03T13:12:04.989Z,101682.29
2018-09-03T13:14:34.262Z,101677.69
2018-09-03T13:17:03.728Z,101672.22
2018-09-03T13:19:33.095Z,101671.41
2018-09-03T13:22:02.907Z,101667.70
2018-09-03T13:24:32.206Z,101664.55
2018-09-03T13:27:01.545Z,101666.77
2018-09-03T13:29:31.436Z,101662.98
2018-09-03T13:32:00.729Z,101663.13
2018-09-03T13:34:30.450Z,101662.65
2018-09-03T13:37:04.968Z,101651.56
2018-09-03T13:39:37.390Z,101649.05
2018-09-03T13:42:08.145Z,101653.89
2018-09-03T13:44:37.571Z,101649.77
2018-09-03T13:47:06.869Z,101650.81
2018-09-03T13:49:36.185Z,101645.41
2018-09-03T13:52:05.891Z,101643.87
2018-09-03T13:57:27.406Z,101635.90
2018-09-03T13:59:57.964Z,101640.33
2018-09-03T14:02:27.359Z,101643.55
2018-09-03T14:04:56.906Z,101636.64
2018-09-03T14:07:26.315Z,101636.59
2018-09-03T14:09:56.413Z,101634.47
2018-09-03T14:12:30.347Z,101632.00
2018-09-03T14:15:02.987Z,101621.59
2018-09-03T14:17:34.232Z,101625.46
2018-09-03T14:20:04.556Z,101622.62
2018-09-03T14:22:35.553Z,101633.22
2018-09-03T14:25:06.208Z,101623.46
2018-09-03T14:27:37.087Z,101633.27
2018-09-03T14:30:07.816Z,101631.28
2018-09-03T14:32:37.757Z,101636.05
2018-09-03T14:35:12.760Z,101630.47
2018-09-03T14:38:01.341Z,101626.48
2018-09-03T14:40:36.079Z,101630.94
2018-09-03T14:43:06.700Z,101628.18
2018-09-03T14:45:36.869Z,101621.84
2018-09-03T14:48:06.185Z,101621.05
2018-09-03T14:50:37.872Z,101628.39
2018-09-03T14:53:09.940Z,101615.98
2018-09-03T14:55:39.543Z,101626.34
2018-09-03T14:58:10.279Z,101620.91
2018-09-03T15:00:39.637Z,101629.06
2018-09-03T15:03:09.199Z,101628.14
2018-09-03T15:05:40.644Z,101622.37
2018-09-03T15:08:10.249Z,101625.36
2018-09-03T15:10:39.624Z,101621.77
2018-09-03T15:13:10.505Z,101628.55
2018-09-03T15:15:39.945Z,101620.95
2018-09-03T15:18:09.605Z,101624.55
2018-09-03T15:20:41.009Z,101621.84
2018-09-03T15:23:17.584Z,101618.09
2018-09-03T15:25:48.066Z,101621.22
2018-09-03T15:28:18.214Z,101616.77
2018-09-03T15:30:47.997Z,101621.90
2018-09-03T15:33:19.474Z,101621.55
2018-09-03T15:35:49.252Z,101621.91
2018-09-03T15:38:19.069Z,101609.59
2018-09-03T15:40:49.798Z,101615.41
2018-09-03T15:43:19.354Z,101623.59
2018-09-03T15:45:48.945Z,101623.77
2018-09-03T15:48:18.687Z,101623.13
2018-09-03T15:50:48.672Z,101624.97
2018-09-03T15:53:18.688Z,101622.61
2018-09-03T15:55:48.223Z,101623.96
2018-09-03T15:58:18.115Z,101620.23
2018-09-03T16:00:47.828Z,101621.56
2018-09-03T16:03:18.032Z,101624.95
2018-09-03T16:05:47.885Z,101628.03
2018-09-03T16:08:21.132Z,101629.05
2018-09-03T16:10:51.256Z,101634.47
2018-09-03T16:13:22.687Z,101633.11
2018-09-03T16:15:56.029Z,101626.63
2018-09-03T16:18:25.827Z,101620.34
2018-09-03T16:20:58.143Z,101624.39
2018-09-03T16:23:29.019Z,101617.07
2018-09-03T16:25:58.622Z,101621.16
2018-09-03T16:28:28.128Z,101617.53
2018-09-03T16:30:58.045Z,101621.34
2018-09-03T16:33:28.365Z,101612.11
2018-09-03T16:35:58.299Z,101623.12
2018-09-03T16:38:27.482Z,101618.47
2018-09-03T16:40:57.593Z,101619.09
2018-09-03T16:43:27.084Z,101622.16
2018-09-03T16:45:56.822Z,101620.98
2018-09-03T16:48:27.103Z,101623.85
2018-09-03T16:50:57.220Z,101627.83
2018-09-03T16:53:29.860Z,101630.92
2018-09-03T16:56:01.084Z,101630.66
2018-09-03T16:59:36.714Z,101627.82
2018-09-03T17:02:06.384Z,101631.28
2018-09-03T17:04:50.559Z,101628.23
2018-09-03T17:07:27.073Z,101621.78
2018-09-03T17:10:08.061Z,101621.33
2018-09-03T17:12:42.611Z,101624.05
2018-09-03T17:15:12.359Z,101620.42
2018-09-03T17:17:42.884Z,101618.11
2018-09-03T17:20:14.791Z,101614.97
2018-09-03T17:22:50.870Z,101607.91
2018-09-03T17:25:40.939Z,101620.40
2018-09-03T17:28:26.019Z,101615.74
2018-09-03T17:30:55.821Z,101612.17
2018-09-03T17:33:40.288Z,101610.19
2018-09-03T17:36:15.942Z,101616.41
2018-09-03T17:38:51.477Z,101617.92
2018-09-03T17:41:33.731Z,101618.08
2018-09-03T17:46:51.237Z,101613.81
2018-09-03T17:49:28.782Z,101608.91
2018-09-03T17:52:04.422Z,101615.18
2018-09-03T17:54:41.106Z,101611.42
2018-09-03T17:57:15.098Z,101617.59
2018-09-03T17:59:49.557Z,101611.31
2018-09-03T18:02:25.280Z,101622.47
2018-09-03T18:05:02.211Z,101621.30
2018-09-03T18:07:35.915Z,101621.77
2018-09-03T18:10:11.366Z,101620.77
2018-09-03T18:12:48.169Z,101624.22
2018-09-03T18:15:29.327Z,101626.77
2018-09-03T18:18:01.336Z,101631.70
2018-09-03T18:20:47.198Z,101639.09
2018-09-03T18:23:47.342Z,101634.44
2018-09-03T18:26:31.337Z,101630.22
2018-09-03T18:29:12.753Z,101631.09
2018-09-03T18:32:10.122Z,101630.52
2018-09-03T18:35:07.772Z,101630.83
2018-09-03T18:37:43.273Z,101630.74
2018-09-03T18:40:27.534Z,101630.48
2018-09-03T18:43:03.101Z,101635.76
2018-09-03T18:45:37.402Z,101635.22
2018-09-03T18:48:09.018Z,101636.83
2018-09-03T18:50:39.783Z,101635.92
2018-09-03T18:53:28.689Z,101636.27
2018-09-03T18:56:03.509Z,101633.36
2018-09-03T18:58:34.139Z,101631.72
2018-09-03T19:01:03.819Z,101632.92
2018-09-03T19:03:33.660Z,101638.16
2018-09-03T19:06:04.585Z,101641.61
2018-09-03T19:08:35.001Z,101637.70
2018-09-03T19:11:04.353Z,101642.88
2018-09-03T19:13:33.830Z,101638.11
2018-09-03T19:16:04.054Z,101639.55
2018-09-03T19:18:33.556Z,101642.81
2018-09-03T19:21:03.032Z,101646.43
2018-09-03T19:23:32.556Z,101641.02
2018-09-03T19:26:01.940Z,101643.45
2018-09-03T19:28:31.396Z,101645.72
2018-09-03T19:31:01.017Z,101650.43
2018-09-03T19:33:35.602Z,101651.14
2018-09-03T19:36:05.652Z,101648.66
2018-09-03T19:38:35.738Z,101648.91
2018-09-03T19:41:05.426Z,101650.21
2018-09-03T19:43:35.364Z,101651.76
2018-09-03T19:46:05.457Z,101649.21
2018-09-03T19:48:34.961Z,101648.36
2018-09-03T19:51:04.500Z,101652.25
2018-09-03T19:53:34.077Z,101653.11
2018-09-03T19:56:03.412Z,101645.18
2018-09-03T19:58:33.250Z,101639.41
2018-09-03T20:01:04.432Z,101641.01
2018-09-03T20:03:33.893Z,101641.70
2018-09-03T20:06:03.509Z,101635.85
2018-09-03T20:08:33.985Z,101637.64
2018-09-03T20:11:03.410Z,101630.23
2018-09-03T20:13:32.952Z,101634.41
2018-09-03T20:18:48.039Z,101636.55
2018-09-03T20:21:18.650Z,101630.85
2018-09-03T20:23:58.043Z,101635.09
2018-09-03T20:26:30.324Z,101634.70
2018-09-03T20:29:00.100Z,101638.12
2018-09-03T20:31:33.319Z,101641.61
2018-09-03T20:34:04.177Z,101641.65
2018-09-03T20:36:33.664Z,101639.66
2018-09-03T20:39:03.242Z,101642.31
2018-09-03T20:41:32.773Z,101637.76
2018-09-03T20:44:03.228Z,101636.17
2018-09-03T20:46:33.118Z,101632.53
2018-09-03T20:49:02.801Z,101638.06
2018-09-03T20:51:32.438Z,101638.48
2018-09-03T20:54:02.914Z,101642.83
2018-09-03T20:56:32.346Z,101636.84
2018-09-03T20:59:01.891Z,101633.93
2018-09-03T21:01:31.503Z,101630.09
2018-09-03T21:04:01.653Z,101636.98
2018-09-03T21:06:31.210Z,101634.64
2018-09-03T21:09:00.732Z,101635.21
2018-09-03T21:11:30.307Z,101632.22
2018-09-03T21:14:00.341Z,101641.30
2018-09-03T21:16:29.844Z,101637.06
2018-09-03T21:18:59.468Z,101638.31
2018-09-03T21:21:29.529Z,101639.12
2018-09-03T21:23:59.236Z,101642.66
2018-09-03T21:26:28.831Z,101646.81
2018-09-03T21:28:58.412Z,101653.58
2018-09-03T21:31:27.788Z,101644.61
2018-09-03T21:33:57.352Z,101643.97
2018-09-03T21:36:27.042Z,101649.73
2018-09-03T21:38:57.643Z,101650.77
2018-09-03T21:41:27.168Z,101646.32
2018-09-03T21:43:57.334Z,101644.54
2018-09-03T21:46:27.439Z,101639.84
2018-09-03T21:48:57.193Z,101639.48
2018-09-03T21:51:26.749Z,101639.70
2018-09-03T21:53:56.974Z,101634.50
2018-09-03T21:56:27.288Z,101637.84
2018-09-03T21:58:57.483Z,101632.58
2018-09-03T22:01:27.717Z,101634.97
2018-09-03T22:03:57.418Z,101629.41
2018-09-03T22:06:28.138Z,101633.19
2018-09-03T22:08:57.679Z,101636.42
2018-09-03T22:11:27.242Z,101639.87
2018-09-03T22:13:57.716Z,101642.93
2018-09-03T22:16:27.961Z,101643.73
2018-09-03T22:18:58.462Z,101645.09
2018-09-03T22:21:27.857Z,101644.02
2018-09-03T22:23:57.438Z,101645.09
2018-09-03T22:26:26.858Z,101644.38
2018-09-03T22:28:57.118Z,101644.45
2018-09-03T22:31:27.181Z,101646.30
2018-09-03T22:33:57.318Z,101648.65
2018-09-03T22:36:27.184Z,101649.50
2018-09-03T22:38:57.335Z,101651.73
2018-09-03T22:41:26.922Z,101648.54
2018-09-03T22:43:56.305Z,101648.16
2018-09-03T22:46:26.546Z,101657.78
2018-09-03T22:48:57.198Z,101653.48
2018-09-03T22:51:26.936Z,101651.84
2018-09-03T22:53:57.678Z,101650.53
2018-09-03T22:56:27.329Z,101652.98
2018-09-03T22:58:59.806Z,101645.54
2018-09-03T23:01:29.252Z,101639.16
2018-09-03T23:03:58.902Z,101637.31
2018-09-03T23:06:28.385Z,101643.91
2018-09-03T23:08:57.880Z,101639.58
2018-09-03T23:11:27.336Z,101636.16
2018-09-03T23:13:56.914Z,101641.21
2018-09-03T23:16:26.497Z,101631.64
2018-09-03T23:18:57.045Z,101628.44
2018-09-03T23:21:26.512Z,101628.58
2018-09-03T23:23:56.062Z,101631.92
2018-09-03T23:26:25.831Z,101630.09
2018-09-03T23:28:55.740Z,101628.00
2018-09-03T23:31:25.354Z,101623.17
2018-09-03T23:33:55.077Z,101611.51
2018-09-03T23:36:24.803Z,101610.02
2018-09-03T23:38:54.606Z,101606.73
2018-09-03T23:41:24.383Z,101605.53
2018-09-03T23:43:54.170Z,101600.15
2018-09-03T23:46:23.709Z,101599.43
2018-09-03T23:48:53.826Z,101597.72
2018-09-03T23:51:23.488Z,101589.04
2018-09-03T23:53:53.666Z,101592.45
2018-09-03T23:56:23.478Z,101592.62
2018-09-03T23:58:53.398Z,101588.56
